Thunder radar more information blitzortung!


Radar de pluja more information rain snow radar


Visita la nostra xarxa de llocs de meteo:

Template documentation
and downloads

And another site



No particular awareness of the weather is required.    There are no Weather-warnings

Pagina Historial Weather Underground text

Diari Resum Agost 31, 2017 Unitats:  Imperial    Mètric   Tant
« Previous Dia
SegĂźent Dia »
Diari Setmana Mensual Anual Personalitzada
  Maxima: Minima: Media:
Temperatura: TemperatureC °F 18.2 °F 20.7 °F
Punt de rosada: DewpointC °F 15.3 °F 17 °F
Humitat: Humidity % 73 % 79 %
Wind Speed: WindSpeedKMH mph 0.0 mph 6.1 mph
RĂ fegues de vent: WindSpeedGustKMH mph - -
Vent:- - ESE
Pression baro: PressurehPa in 1012.8 in -
Precipitacions: 5.3 in    
Historical Graphs
 
 
Dades de taula per Agost 31, 2017
Temps Temperatura Punt de rosada Pression baro Vent Wind Speed RĂ fegues de vent Humitat Rainfall Rate (Hourly)
TemperatureC °F DewpointC °F PressurehPa in Calm     Humidity % HourlyPrecipMM in
00:00 20.7 °F 17.1 °F 1013.8 in SSW 1.6 mph 3.2 mph 80 % 0.0 in
00:03 21.3 °F 16.9 °F 1012.8 in SW 1.9 mph   76 % 0.0 in
00:08 21.3 °F 16.9 °F 1012.8 in Calm     76 % 0.0 in
00:10 20.5 °F 16.9 °F 1013.8 in Calm     80 % 0.0 in
00:20 20.5 °F 16.9 °F 1012.8 in Calm     80 % 0.0 in
00:30 20.6 °F 17.0 °F 1013.8 in Calm   1.6 mph 80 % 0.0 in
00:40 20.6 °F 17.0 °F 1013.8 in Calm   3.2 mph 80 % 0.0 in
00:50 20.6 °F 17.0 °F 1013.8 in Calm   1.6 mph 80 % 0.0 in
01:00 20.6 °F 17.0 °F 1013.8 in Calm     80 % 0.0 in
01:10 20.6 °F 17.2 °F 1013.8 in Calm     81 % 0.0 in
01:20 20.5 °F 17.1 °F 1013.8 in WSW 1.6 mph 3.2 mph 81 % 0.0 in
01:30 20.5 °F 17.1 °F 1012.8 in West 1.6 mph 1.6 mph 81 % 0.0 in
01:40 20.4 °F 17.1 °F 1012.8 in Calm   1.6 mph 81 % 0.0 in
01:50 20.3 °F 16.9 °F 1012.8 in Calm   1.6 mph 81 % 0.0 in
02:00 20.2 °F 17.0 °F 1013.8 in WSW 1.6 mph 3.2 mph 82 % 0.0 in
02:10 19.9 °F 16.9 °F 1013.8 in SW 1.6 mph 3.2 mph 83 % 0.0 in
02:20 19.9 °F 17.1 °F 1013.8 in Calm   1.6 mph 84 % 0.0 in
02:30 20.0 °F 16.8 °F 1013.8 in SW 3.2 mph 4.8 mph 82 % 0.0 in
02:40 19.9 °F 17.1 °F 1013.8 in Calm   4.8 mph 84 % 0.0 in
02:50 20.0 °F 17.4 °F 1013.8 in WNW 1.6 mph 1.6 mph 85 % 0.0 in
03:00 20.0 °F 17.4 °F 1013.8 in Calm   1.6 mph 85 % 0.0 in
03:10 19.9 °F 17.3 °F 1013.8 in NNE 4.8 mph 4.8 mph 85 % 0.0 in
03:20 19.9 °F 17.3 °F 1013.8 in NE 3.2 mph 6.4 mph 85 % 0.0 in
03:30 19.9 °F 17.3 °F 1013.8 in NE 1.6 mph 4.8 mph 85 % 0.0 in
03:40 19.9 °F 17.3 °F 1013.8 in NNE 4.8 mph 6.4 mph 85 % 0.0 in
08:41 19.9 °F 17.7 °F 1014.8 in WSW 7.4 mph 7.4 mph 87 % 0.0 in
08:42 19.9 °F 17.7 °F 1014.8 in WSW 3.7 mph 3.7 mph 87 % 0.0 in
08:45 20.0 °F 17.8 °F 1014.8 in WSW 1.9 mph   87 % 0.0 in
08:50 20.0 °F 17.9 °F 1014.8 in Calm     88 % 0.0 in
08:55 20.1 °F 18.1 °F 1014.8 in ENE 5.6 mph 5.6 mph 88 % 0.0 in
09:00 20.0 °F 17.9 °F 1014.8 in East 3.7 mph 3.7 mph 88 % 0.0 in
09:05 20.0 °F 17.9 °F 1014.8 in ENE 4.2 mph 4.2 mph 88 % 0.0 in
09:06 20.0 °F 17.8 °F 1014.8 in ENE 3.7 mph 3.7 mph 87 % 0.0 in
09:11 20.2 °F 17.9 °F 1014.8 in East 1.9 mph 2.3 mph 87 % 0.0 in
09:16 20.2 °F 17.9 °F 1014.8 in ENE 5.6 mph 5.6 mph 87 % 0.0 in
09:21 20.1 °F 17.7 °F 1014.8 in NNE 7.4 mph 7.4 mph 86 % 0.0 in
09:26 20.2 °F 17.8 °F 1014.8 in NE 3.7 mph 3.7 mph 86 % 0.0 in
09:31 20.4 °F 18.2 °F 1014.8 in North 3.7 mph 3.7 mph 87 % 0.0 in
09:36 20.4 °F 18.2 °F 1014.8 in WNW 3.7 mph 3.7 mph 87 % 0.0 in
09:41 20.4 °F 18.2 °F 1015.8 in WNW 1.9 mph   87 % 0.0 in
09:46 20.4 °F 18.2 °F 1015.8 in NE 3.2 mph 3.2 mph 87 % 0.0 in
09:51 20.4 °F 18.0 °F 1015.8 in Calm     86 % 0.0 in
09:56 20.5 °F 18.1 °F 1015.8 in Calm     86 % 0.0 in
10:01 20.4 °F 18.0 °F 1015.8 in NE 1.9 mph 1.9 mph 86 % 0.0 in
10:06 20.5 °F 18.1 °F 1015.8 in Calm     86 % 0.0 in
10:11 20.6 °F 18.3 °F 1015.8 in WSW 3.7 mph 3.7 mph 87 % 0.0 in
10:16 20.6 °F 18.3 °F 1015.8 in SW 3.7 mph 3.7 mph 87 % 0.0 in
10:21 20.5 °F 18.1 °F 1015.8 in SW 3.7 mph 3.7 mph 86 % 0.0 in
10:26 20.5 °F 18.3 °F 1016.8 in SSW 3.7 mph 3.7 mph 87 % 0.0 in
10:31 20.6 °F 18.3 °F 1016.8 in SSW 1.9 mph   87 % 0.0 in
10:36 20.6 °F 18.3 °F 1016.8 in West 1.9 mph 1.9 mph 87 % 0.0 in
10:41 20.6 °F 18.3 °F 1016.8 in WSW 1.4 mph   87 % 0.0 in
10:46 20.6 °F 18.2 °F 1016.8 in Calm     86 % 0.0 in
10:51 20.7 °F 18.3 °F 1016.8 in Calm     86 % 0.0 in
10:56 20.8 °F 18.4 °F 1015.8 in NE 3.7 mph 3.7 mph 86 % 0.0 in
11:01 20.9 °F 18.4 °F 1015.8 in NNE 5.3 mph 5.3 mph 86 % 0.0 in
11:06 21.0 °F 18.4 °F 1015.8 in NNE 4.2 mph   85 % 0.0 in
11:11 20.8 °F 18.0 °F 1015.8 in ENE 1.9 mph   84 % 0.0 in
11:16 20.8 °F 17.8 °F 1015.8 in NNE 3.9 mph 3.9 mph 83 % 0.0 in
11:21 20.8 °F 17.6 °F 1015.8 in Calm     82 % 0.0 in
11:26 21.0 °F 17.8 °F 1015.8 in Calm     82 % 0.0 in
11:31 21.0 °F 17.8 °F 1015.8 in WNW 1.9 mph   82 % 0.0 in
11:36 21.1 °F 17.9 °F 1015.8 in WNW 2.3 mph   82 % 0.0 in
11:41 21.2 °F 18.0 °F 1015.8 in West 3.7 mph 3.7 mph 82 % 0.0 in
11:46 21.3 °F 18.1 °F 1015.8 in Calm     82 % 0.0 in
11:51 21.4 °F 18.0 °F 1015.8 in SW 5.6 mph 5.6 mph 81 % 0.0 in
11:56 21.4 °F 18.0 °F 1015.8 in West 3.2 mph 3.2 mph 81 % 0.0 in
12:01 21.5 °F 17.9 °F 1015.8 in SW 1.9 mph 1.9 mph 80 % 0.0 in
12:06 21.6 °F 18.0 °F 1015.8 in SW 2.3 mph 2.3 mph 80 % 0.0 in
12:11 21.7 °F 17.9 °F 1015.8 in South 2.6 mph   79 % 0.0 in
12:16 21.7 °F 17.9 °F 1015.8 in Calm     79 % 0.0 in
12:21 21.7 °F 17.7 °F 1015.8 in Calm     78 % 0.0 in
12:26 21.8 °F 17.8 °F 1016.8 in Calm     78 % 0.0 in
12:31 22.0 °F 18.2 °F 1016.8 in SW 2.6 mph   79 % 0.0 in
12:36 21.9 °F 18.3 °F 1016.8 in West 1.9 mph 1.9 mph 80 % 0.0 in
12:41 21.8 °F 18.2 °F 1016.8 in WNW 3.7 mph 3.7 mph 80 % 0.0 in
12:46 21.7 °F 18.1 °F 1016.8 in NNE 3.9 mph 3.9 mph 80 % 0.0 in
12:51 21.7 °F 18.1 °F 1016.8 in WSW 3.7 mph 3.7 mph 80 % 0.0 in
12:56 21.9 °F 18.3 °F 1016.8 in ENE 2.3 mph   80 % 0.0 in
13:01 22.0 °F 18.4 °F 1016.8 in WNW 1.9 mph   80 % 0.0 in
13:06 22.1 °F 18.5 °F 1016.8 in SW 3.7 mph   80 % 0.0 in
13:11 22.1 °F 18.1 °F 1016.8 in SSW 3.7 mph 3.7 mph 78 % 0.0 in
13:16 22.1 °F 17.9 °F 1016.8 in NNE 1.9 mph 1.9 mph 77 % 0.0 in
13:21 22.1 °F 17.9 °F 1016.8 in Calm     77 % 0.0 in
13:26 22.3 °F 18.1 °F 1015.8 in ENE 3.7 mph 3.7 mph 77 % 0.0 in
13:31 22.3 °F 17.9 °F 1015.8 in ENE 3.7 mph 3.7 mph 76 % 0.0 in
13:36 22.5 °F 18.1 °F 1015.8 in ENE 5.6 mph 5.6 mph 76 % 0.0 in
13:41 22.8 °F 18.3 °F 1015.8 in ENE 5.6 mph 5.6 mph 76 % 0.0 in
13:46 22.8 °F 18.1 °F 1015.8 in ESE 7.4 mph 7.4 mph 75 % 0.0 in
13:51 22.8 °F 18.1 °F 1015.8 in SE 7.4 mph 7.4 mph 75 % 0.0 in
13:56 22.7 °F 18.1 °F 1015.8 in ESE 9.3 mph 9.3 mph 75 % 0.0 in
14:01 22.7 °F 18.1 °F 1015.8 in ESE 9.3 mph 9.3 mph 75 % 0.0 in
14:06 22.7 °F 18.2 °F 1015.8 in East 11.1 mph 11.1 mph 76 % 0.0 in
14:11 22.6 °F 18.2 °F 1016.8 in ESE 18.5 mph 18.5 mph 76 % 0.0 in
14:16 22.5 °F 18.3 °F 1016.8 in ESE 14.8 mph 14.8 mph 77 % 0.0 in
14:21 22.5 °F 18.3 °F 1016.8 in ESE 14.8 mph 14.8 mph 77 % 0.0 in
14:26 22.1 °F 17.9 °F 1017.8 in SE 14.8 mph 14.8 mph 77 % 0.0 in
14:31 21.8 °F 17.6 °F 1017.8 in ESE 16.7 mph 16.7 mph 77 % 0.0 in
14:36 21.4 °F 17.2 °F 1017.8 in East 14.8 mph 14.8 mph 77 % 0.0 in
14:41 21.4 °F 17.2 °F 1017.8 in NNE 9.3 mph 9.3 mph 77 % 0.0 in
14:46 21.2 °F 17.0 °F 1017.8 in ESE 13.0 mph 13.0 mph 77 % 0.0 in
14:51 20.8 °F 17.0 °F 1017.8 in East 7.4 mph 7.4 mph 79 % 1.0 in
14:56 20.5 °F 16.9 °F 1017.8 in ENE 5.6 mph 5.6 mph 80 % 1.0 in
15:01 20.6 °F 17.2 °F 1017.8 in ESE 7.4 mph 7.4 mph 81 % 1.0 in
15:06 20.6 °F 17.2 °F 1017.8 in East 3.7 mph 3.7 mph 81 % 1.0 in
15:11 20.7 °F 17.3 °F 1017.8 in North 5.6 mph 5.6 mph 81 % 2.3 in
15:16 20.8 °F 17.6 °F 1017.8 in Calm     82 % 3.3 in
15:21 20.5 °F 17.3 °F 1017.8 in NE 3.7 mph 3.7 mph 82 % 3.3 in
15:26 20.5 °F 17.3 °F 1016.8 in NE 3.7 mph 3.7 mph 82 % 5.3 in
15:31 20.9 °F 17.9 °F 1016.8 in ENE 9.3 mph 9.3 mph 83 % 5.3 in
15:33 21.0 °F 18.0 °F 1016.8 in NNE 9.3 mph 9.3 mph 83 % 5.3 in
15:38 21.1 °F 17.9 °F 1016.8 in ESE 13.0 mph 13.0 mph 82 % 5.3 in
15:43 21.4 °F 18.0 °F 1017.8 in NNE 5.6 mph 5.6 mph 81 % 5.3 in
15:48 21.5 °F 17.9 °F 1017.8 in ENE 9.3 mph 9.3 mph 80 % 4.3 in
15:53 21.7 °F 18.1 °F 1017.8 in ENE 11.1 mph 11.1 mph 80 % 4.3 in
15:58 21.8 °F 18.2 °F 1017.8 in ESE 9.3 mph 9.3 mph 80 % 4.3 in
16:03 22.0 °F 17.8 °F 1017.8 in East 14.8 mph 14.8 mph 77 % 4.3 in
16:08 22.2 °F 17.8 °F 1017.8 in East 18.5 mph 18.5 mph 76 % 3.0 in
16:13 22.1 °F 17.2 °F 1017.8 in ESE 11.1 mph 11.1 mph 74 % 3.0 in
16:18 22.0 °F 17.2 °F 1017.8 in SSW 16.7 mph 16.7 mph 74 % 2.0 in
16:23 21.8 °F 17.2 °F 1017.8 in East 16.7 mph 16.7 mph 75 % 1.0 in
16:28 21.8 °F 17.2 °F 1015.8 in NE 16.7 mph 16.7 mph 75 % 0.0 in
16:33 21.9 °F 17.3 °F 1015.8 in ESE 14.8 mph 14.8 mph 75 % 0.0 in
16:38 22.3 °F 17.4 °F 1015.8 in East 14.8 mph 14.8 mph 74 % 0.0 in
16:43 22.6 °F 17.7 °F 1015.8 in ESE 11.1 mph 11.1 mph 74 % 0.0 in
16:48 22.7 °F 17.6 °F 1015.8 in ESE 14.8 mph 14.8 mph 73 % 0.0 in
16:53 22.5 °F 17.4 °F 1015.8 in East 14.8 mph 14.8 mph 73 % 0.0 in
16:58 22.3 °F 17.2 °F 1015.8 in ESE 14.8 mph 14.8 mph 73 % 0.0 in
17:03 22.3 °F 17.2 °F 1015.8 in ESE 9.3 mph 9.5 mph 73 % 0.0 in
17:08 22.3 °F 17.2 °F 1015.8 in ESE 14.8 mph 14.8 mph 73 % 0.0 in
17:13 22.2 °F 17.1 °F 1015.8 in ESE 13.0 mph 13.0 mph 73 % 0.0 in
17:18 22.3 °F 17.4 °F 1015.8 in SE 16.7 mph 16.7 mph 74 % 0.0 in
17:23 22.1 °F 17.2 °F 1016.8 in SE 16.7 mph 16.7 mph 74 % 0.0 in
17:33 21.7 °F 17.1 °F 1016.8 in ESE 16.7 mph 16.7 mph 75 % 0.0 in
17:38 21.5 °F 17.1 °F 1017.8 in ESE 18.5 mph 18.5 mph 76 % 0.0 in
17:43 21.4 °F 17.0 °F 1017.8 in SE 13.0 mph 13.0 mph 76 % 0.0 in
17:48 21.3 °F 16.9 °F 1017.8 in East 11.4 mph 11.4 mph 76 % 0.0 in
17:53 21.1 °F 16.7 °F 1016.8 in SE 13.7 mph 13.7 mph 76 % 0.0 in
17:58 21.0 °F 16.8 °F 1016.8 in ENE 13.0 mph 13.0 mph 77 % 0.0 in
18:03 20.9 °F 16.9 °F 1016.8 in East 20.4 mph 20.4 mph 78 % 0.0 in
18:08 20.9 °F 16.9 °F 1016.8 in ESE 16.7 mph 16.7 mph 78 % 0.0 in
18:13 20.8 °F 16.8 °F 1016.8 in East 14.8 mph 14.8 mph 78 % 0.0 in
18:18 20.9 °F 16.9 °F 1016.8 in ESE 17.2 mph 17.2 mph 78 % 0.0 in
18:23 20.9 °F 16.9 °F 1017.8 in East 9.3 mph 9.3 mph 78 % 0.0 in
18:28 20.9 °F 16.9 °F 1017.8 in East 11.1 mph 11.1 mph 78 % 0.0 in
18:33 20.8 °F 16.8 °F 1017.8 in ESE 9.3 mph 9.3 mph 78 % 0.0 in
18:38 20.8 °F 16.8 °F 1017.8 in East 13.0 mph 13.0 mph 78 % 0.0 in
18:43 20.8 °F 16.8 °F 1017.8 in ENE 11.1 mph 11.1 mph 78 % 0.0 in
18:48 20.8 °F 16.8 °F 1017.8 in SE 9.3 mph 9.3 mph 78 % 0.0 in
18:53 20.8 °F 16.8 °F 1017.8 in ESE 9.3 mph 9.3 mph 78 % 0.0 in
18:58 20.8 °F 16.8 °F 1017.8 in SE 11.9 mph 11.9 mph 78 % 0.0 in
19:03 20.7 °F 16.7 °F 1017.8 in East 11.1 mph 11.1 mph 78 % 0.0 in
19:08 20.6 °F 16.6 °F 1017.8 in East 13.0 mph 13.0 mph 78 % 0.0 in
19:13 20.7 °F 16.7 °F 1017.8 in East 11.1 mph 11.1 mph 78 % 0.0 in
19:18 20.6 °F 16.6 °F 1017.8 in NE 14.8 mph 14.8 mph 78 % 0.0 in
19:23 20.6 °F 16.8 °F 1017.8 in East 12.6 mph 12.6 mph 79 % 0.0 in
19:28 20.5 °F 16.7 °F 1017.8 in SE 11.4 mph 11.4 mph 79 % 0.0 in
19:33 20.5 °F 16.7 °F 1017.8 in NE 9.7 mph 9.7 mph 79 % 0.0 in
19:38 20.5 °F 16.6 °F 1017.8 in NNE 12.6 mph 12.6 mph 78 % 0.0 in
19:43 20.4 °F 16.4 °F 1017.8 in ENE 13.0 mph 13.0 mph 78 % 0.0 in
19:48 20.4 °F 16.4 °F 1017.8 in SE 11.1 mph 11.1 mph 78 % 0.0 in
19:53 20.4 °F 16.4 °F 1017.8 in ENE 13.0 mph 13.0 mph 78 % 0.0 in
19:58 20.3 °F 16.3 °F 1017.8 in ESE 13.0 mph 13.0 mph 78 % 0.0 in
20:03 20.3 °F 16.3 °F 1017.8 in ESE 11.1 mph 11.1 mph 78 % 0.0 in
20:08 20.3 °F 16.3 °F 1017.8 in East 9.3 mph 9.3 mph 78 % 0.0 in
20:13 20.3 °F 16.3 °F 1017.8 in NE 9.3 mph 9.3 mph 78 % 0.0 in
20:18 20.2 °F 16.2 °F 1017.8 in ESE 8.7 mph 8.7 mph 78 % 0.0 in
20:20 19.4 °F 15.7 °F 1017.8 in North 1.6 mph 1.6 mph 79 % 0.0 in
20:23 20.2 °F 16.2 °F 1017.8 in East 6.9 mph 6.9 mph 78 % 0.0 in
20:28 20.2 °F 16.2 °F 1017.8 in ESE 7.4 mph 7.4 mph 78 % 0.0 in
20:29 20.2 °F 16.2 °F 1017.8 in SE 5.6 mph 5.6 mph 78 % 0.0 in
20:30 19.2 °F 15.7 °F 1017.8 in Calm   3.2 mph 80 % 0.0 in
20:34 20.2 °F 16.2 °F 1017.8 in SE 9.5 mph 9.5 mph 78 % 0.0 in
20:39 20.2 °F 16.2 °F 1017.8 in ENE 7.4 mph 7.4 mph 78 % 0.0 in
20:40 19.0 °F 15.4 °F 1017.8 in Calm     80 % 0.0 in
20:44 20.2 °F 16.2 °F 1017.8 in SSE 7.9 mph 7.9 mph 78 % 0.0 in
20:49 20.2 °F 16.2 °F 1017.8 in ESE 7.4 mph 7.4 mph 78 % 0.0 in
20:50 18.9 °F 15.8 °F 1017.8 in Calm     82 % 0.0 in
20:54 20.2 °F 16.1 °F 1017.8 in ESE 7.4 mph 7.4 mph 77 % 0.0 in
20:59 20.2 °F 16.1 °F 1017.8 in East 13.0 mph 13.0 mph 77 % 0.0 in
21:00 18.7 °F 15.6 °F 1017.8 in Calm     82 % 0.0 in
21:04 20.2 °F 16.1 °F 1017.8 in SE 13.0 mph 13.0 mph 77 % 0.0 in
21:09 20.3 °F 16.1 °F 1017.8 in ENE 9.3 mph 9.3 mph 77 % 0.0 in
21:10 18.6 °F 15.4 °F 1017.8 in Calm     82 % 0.0 in
21:14 20.3 °F 16.1 °F 1017.8 in ESE 7.4 mph 7.4 mph 77 % 0.0 in
21:19 20.3 °F 16.1 °F 1017.8 in East 5.6 mph 5.6 mph 77 % 0.0 in
21:20 18.5 °F 15.6 °F 1017.8 in Calm     83 % 0.0 in
21:24 20.3 °F 16.1 °F 1017.8 in East 7.9 mph 7.9 mph 77 % 0.0 in
21:29 20.3 °F 16.1 °F 1017.8 in NE 7.4 mph 7.4 mph 77 % 0.0 in
21:30 18.4 °F 15.4 °F 1017.8 in Calm     83 % 0.0 in
21:34 20.2 °F 16.1 °F 1017.8 in East 3.7 mph 3.7 mph 77 % 0.0 in
21:39 20.2 °F 16.1 °F 1017.8 in NNE 2.3 mph 2.3 mph 77 % 0.0 in
21:40 18.2 °F 15.3 °F 1017.8 in NNE 1.6 mph 3.2 mph 83 % 0.0 in
21:44 20.2 °F 16.1 °F 1017.8 in NE 3.7 mph 3.7 mph 77 % 0.0 in
21:45 20.2 °F 16.1 °F 1017.8 in NE 3.7 mph 3.7 mph 77 % 0.0 in
21:50 20.2 °F 16.1 °F 1017.8 in Calm     77 % 0.0 in
21:55 20.2 °F 15.8 °F 1017.8 in ENE 1.9 mph 2.3 mph 76 % 0.0 in
22:00 20.2 °F 15.8 °F 1017.8 in NE 3.7 mph 3.7 mph 76 % 0.0 in
22:05 20.2 °F 15.8 °F 1017.8 in East 3.7 mph 3.7 mph 76 % 0.0 in
22:10 20.2 °F 16.1 °F 1017.8 in NE 5.6 mph 5.6 mph 77 % 0.0 in
22:15 20.2 °F 16.1 °F 1017.8 in NNE 5.6 mph 5.6 mph 77 % 0.0 in
22:20 20.1 °F 15.7 °F 1017.8 in NE 3.7 mph 3.7 mph 76 % 0.0 in
22:25 20.2 °F 15.8 °F 1018.8 in NE 1.9 mph 1.9 mph 76 % 0.0 in
22:30 20.2 °F 15.8 °F 1018.8 in NNE 3.7 mph 3.7 mph 76 % 0.0 in
22:35 20.2 °F 15.8 °F 1018.8 in East 2.6 mph 2.6 mph 76 % 0.0 in
22:40 20.2 °F 15.8 °F 1018.8 in East 3.7 mph 3.7 mph 76 % 0.0 in
22:45 20.2 °F 15.8 °F 1018.8 in ESE 1.9 mph 1.9 mph 76 % 0.0 in
22:50 20.2 °F 16.1 °F 1018.8 in WSW 1.9 mph 1.9 mph 77 % 0.0 in
22:55 20.1 °F 15.9 °F 1018.8 in WSW 2.6 mph 2.6 mph 77 % 0.0 in
23:00 20.1 °F 15.9 °F 1018.8 in WSW 2.3 mph 2.3 mph 77 % 0.0 in
23:05 20.0 °F 15.8 °F 1018.8 in Calm     77 % 0.0 in
23:10 20.0 °F 16.1 °F 1017.8 in Calm     78 % 0.0 in
23:15 20.0 °F 16.1 °F 1017.8 in Calm     78 % 0.0 in
23:20 20.0 °F 16.1 °F 1017.8 in NNE 3.7 mph 3.7 mph 78 % 0.0 in
23:25 19.9 °F 15.9 °F 1017.8 in NNE 1.9 mph 1.9 mph 78 % 0.0 in
23:30 19.9 °F 15.9 °F 1017.8 in North 1.9 mph   78 % 0.0 in
23:35 19.8 °F 15.8 °F 1017.8 in NNE 1.9 mph   78 % 0.0 in
23:40 19.8 °F 15.8 °F 1017.8 in NNE 3.7 mph 3.7 mph 78 % 0.0 in
23:45 19.8 °F 15.8 °F 1017.8 in NNE 2.3 mph 2.3 mph 78 % 0.0 in
23:50 19.8 °F 15.8 °F 1017.8 in Calm     78 % 0.0 in
23:55 19.7 °F 15.8 °F 1017.8 in NNE 1.9 mph   78 % 0.0 in
Meteo Sesrovires
Elogis d' Weather Underground - 1.5 mb

Guio original per  Jim McMurry - jmcmurry@mwt.net Adaptat per a la plantilla per  Wim van der Kuil - Leuven-Template.eu

Trobareu la nostra informacio del temps tambe a:

Weather Underground

AWEKAS